Time;durP1;ratioP1;P1;durP2;ratioP2;P2;SDS_P1;SDS_P2;PMS_P1;PMS_P2;Temp;Humidity;BMP_temperature;BMP_pressure;BME280_temperature;BME280_humidity;BME280_pressure;Samples;Min_cycle;Max_cycle;Signal;HPM_P1;HPM_P2
2023/09/02 00:01:35;;;;;;;0.10;0.10;;;16.10;99.90;;;;;;5048390;28;20953;-81
2023/09/02 00:04:02;;;;;;;0.10;0.10;;;16.00;99.90;;;;;;5047546;28;20193;-81
2023/09/02 00:06:28;;;;;;;0.10;0.10;;;16.10;99.90;;;;;;5048343;28;20252;-81
2023/09/02 00:08:54;;;;;;;0.10;0.10;;;16.10;99.90;;;;;;5047376;28;20245;-82
2023/09/02 00:11:19;;;;;;;0.10;0.10;;;16.20;99.90;;;;;;5048736;28;20213;-81
2023/09/02 00:13:45;;;;;;;0.10;0.10;;;16.20;99.90;;;;;;5047117;28;20186;-81
2023/09/02 00:16:11;;;;;;;0.00;0.00;;;16.10;99.90;;;;;;5047058;28;20212;-81
2023/09/02 00:18:36;;;;;;;0.10;0.10;;;16.10;99.90;;;;;;5047093;28;20207;-81
2023/09/02 00:21:02;;;;;;;0.10;0.10;;;16.10;99.90;;;;;;5046500;28;20219;-81
2023/09/02 00:23:28;;;;;;;0.10;0.10;;;16.00;99.90;;;;;;5047424;28;20178;-81
2023/09/02 00:25:54;;;;;;;0.10;0.10;;;15.90;99.90;;;;;;5046861;28;20217;-81
2023/09/02 00:28:19;;;;;;;0.10;0.10;;;15.70;99.90;;;;;;5047023;28;20573;-81
2023/09/02 00:30:45;;;;;;;0.10;0.10;;;15.60;99.90;;;;;;5047112;28;20177;-81
2023/09/02 00:33:10;;;;;;;0.10;0.10;;;15.60;99.90;;;;;;5048182;28;20686;-81
2023/09/02 00:35:36;;;;;;;0.10;0.10;;;15.60;99.90;;;;;;5047646;28;20198;-81
2023/09/02 00:38:01;;;;;;;0.10;0.10;;;15.70;99.90;;;;;;5049354;28;20685;-81
2023/09/02 00:40:28;;;;;;;0.10;0.10;;;15.70;99.90;;;;;;5048647;28;20266;-81
2023/09/02 00:42:54;;;;;;;0.10;0.10;;;15.70;99.90;;;;;;5046609;28;21128;-81
2023/09/02 00:45:21;;;;;;;0.10;0.10;;;15.70;99.90;;;;;;5046210;28;20291;-81
2023/09/02 00:47:49;;;;;;;0.10;0.10;;;15.50;99.90;;;;;;5048176;28;20184;-81
2023/09/02 00:50:15;;;;;;;0.10;0.10;;;15.50;99.90;;;;;;5045960;28;20186;-81
2023/09/02 00:52:41;;;;;;;0.10;0.10;;;15.60;99.90;;;;;;5045948;28;20204;-81
2023/09/02 00:55:06;;;;;;;0.10;0.10;;;15.50;99.90;;;;;;5048547;28;20223;-81
2023/09/02 00:57:32;;;;;;;0.10;0.10;;;15.60;99.90;;;;;;5063467;28;20189;-82
2023/09/02 00:59:59;;;;;;;0.10;0.10;;;15.50;99.90;;;;;;5045472;28;20296;-81
2023/09/02 01:02:25;;;;;;;0.10;0.10;;;15.70;99.90;;;;;;5046997;28;20678;-82
2023/09/02 01:04:50;;;;;;;0.10;0.10;;;15.70;99.90;;;;;;5046448;28;20251;-81
2023/09/02 01:07:17;;;;;;;0.10;0.10;;;15.70;99.90;;;;;;5046436;28;20223;-81
2023/09/02 01:09:43;;;;;;;0.10;0.10;;;15.60;99.90;;;;;;5045896;28;20193;-81
2023/09/02 01:12:10;;;;;;;0.10;0.10;;;15.70;99.90;;;;;;5045473;28;20750;-81
2023/09/02 01:14:35;;;;;;;0.10;0.10;;;15.60;99.90;;;;;;5044840;28;20204;-82
2023/09/02 01:17:01;;;;;;;0.10;0.10;;;15.70;99.90;;;;;;5046185;28;20328;-81
2023/09/02 01:19:28;;;;;;;0.10;0.10;;;15.70;99.90;;;;;;5047243;28;20264;-82
2023/09/02 01:21:53;;;;;;;0.10;0.10;;;15.80;99.90;;;;;;5045169;28;20632;-82
2023/09/02 01:24:34;;;;;;;0.10;0.10;;;15.70;99.90;;;;;;5046724;28;20239;-82
2023/09/02 01:27:20;;;;;;;0.10;0.10;;;15.70;99.90;;;;;;5054641;28;20186;-81
2023/09/02 01:30:12;;;;;;;0.10;0.10;;;15.70;99.90;;;;;;5044801;28;20181;-82
2023/09/02 01:32:43;;;;;;;0.10;0.10;;;15.70;99.90;;;;;;5054787;28;20182;-82
2023/09/02 01:35:18;;;;;;;0.10;0.10;;;15.70;99.90;;;;;;5062639;28;20210;-81
2023/09/02 01:37:46;;;;;;;0.10;0.10;;;15.60;99.90;;;;;;5045962;28;20272;-81
2023/09/02 01:40:21;;;;;;;0.10;0.10;;;15.20;99.90;;;;;;5046323;28;20579;-82
2023/09/02 01:42:48;;;;;;;0.10;0.10;;;15.10;99.90;;;;;;5053909;28;20193;-82
2023/09/02 01:45:14;;;;;;;0.10;0.10;;;15.10;99.90;;;;;;5044089;28;20897;-81
2023/09/02 01:47:40;;;;;;;0.10;0.10;;;15.20;99.90;;;;;;5045383;28;20193;-82
2023/09/02 01:50:09;;;;;;;0.10;0.10;;;15.20;99.90;;;;;;5044905;28;20181;-82
2023/09/02 01:52:34;;;;;;;0.10;0.10;;;15.20;99.90;;;;;;5045332;28;20534;-82
2023/09/02 01:55:00;;;;;;;0.10;0.10;;;15.20;99.90;;;;;;5045483;28;20202;-81
2023/09/02 01:57:26;;;;;;;0.10;0.10;;;15.20;99.90;;;;;;5046457;28;20189;-81
2023/09/02 01:59:52;;;;;;;0.10;0.10;;;15.20;99.90;;;;;;5045815;28;20244;-82
2023/09/02 02:02:17;;;;;;;0.10;0.10;;;15.00;99.90;;;;;;5045040;28;20268;-81
2023/09/02 02:04:50;;;;;;;0.10;0.10;;;14.80;99.90;;;;;;5045578;28;20621;-81
2023/09/02 02:07:16;;;;;;;0.10;0.10;;;14.70;99.90;;;;;;5045253;28;20594;-82
2023/09/02 02:09:51;;;;;;;0.10;0.10;;;14.80;99.90;;;;;;5044410;28;20190;-82
2023/09/02 02:12:18;;;;;;;0.10;0.10;;;14.90;99.90;;;;;;5037377;28;20186;-82
2023/09/02 02:14:45;;;;;;;0.10;0.10;;;15.00;99.90;;;;;;5061866;28;20858;-82
2023/09/02 02:17:11;;;;;;;0.10;0.10;;;15.10;99.90;;;;;;5044099;28;20197;-81
2023/09/02 02:19:37;;;;;;;0.10;0.10;;;15.20;99.90;;;;;;5044908;28;20641;-82
2023/09/02 02:22:03;;;;;;;0.10;0.10;;;15.10;99.90;;;;;;5044174;28;20247;-81
2023/09/02 02:24:29;;;;;;;0.10;0.10;;;15.00;99.90;;;;;;5042733;28;20185;-82
2023/09/02 02:26:54;;;;;;;0.10;0.10;;;15.00;99.90;;;;;;5045364;28;20195;-82
2023/09/02 02:29:20;;;;;;;0.10;0.10;;;15.00;99.90;;;;;;5044464;28;20200;-82
2023/09/02 02:31:45;;;;;;;0.10;0.10;;;15.10;99.90;;;;;;5046780;28;20268;-82
2023/09/02 02:34:11;;;;;;;0.10;0.10;;;15.20;99.90;;;;;;5045010;28;20188;-81
2023/09/02 02:36:36;;;;;;;0.10;0.10;;;15.00;99.90;;;;;;5047002;28;20236;-82
2023/09/02 02:39:04;;;;;;;0.10;0.10;;;15.00;99.90;;;;;;5044345;28;20626;-81
2023/09/02 02:41:30;;;;;;;0.10;0.10;;;15.10;99.90;;;;;;5043147;28;20182;-81
2023/09/02 02:43:56;;;;;;;0.10;0.10;;;15.10;99.90;;;;;;5062386;28;20659;-82
2023/09/02 02:46:21;;;;;;;0.10;0.10;;;15.10;99.90;;;;;;5045332;28;20205;-82
2023/09/02 02:48:47;;;;;;;0.10;0.10;;;15.10;99.90;;;;;;5045061;28;20194;-82
2023/09/02 02:51:12;;;;;;;0.10;0.10;;;15.10;99.90;;;;;;5044120;28;20236;-81
2023/09/02 02:53:38;;;;;;;0.00;0.00;;;15.20;99.90;;;;;;5046441;28;20686;-82
2023/09/02 02:56:03;;;;;;;0.10;0.10;;;15.10;99.90;;;;;;5045580;28;20212;-82
2023/09/02 02:58:31;;;;;;;0.10;0.10;;;15.10;99.90;;;;;;5045117;28;20193;-82
2023/09/02 03:01:07;;;;;;;0.10;0.10;;;15.20;99.90;;;;;;5043425;28;20573;-81
2023/09/02 03:03:35;;;;;;;0.10;0.10;;;15.30;99.90;;;;;;5044410;28;20178;-80
2023/09/02 03:06:02;;;;;;;0.10;0.10;;;15.10;99.90;;;;;;5045252;28;20583;-81
2023/09/02 03:08:27;;;;;;;0.10;0.10;;;15.00;99.90;;;;;;5044016;28;20200;-82
2023/09/02 03:10:57;;;;;;;0.10;0.10;;;14.70;99.90;;;;;;5043919;28;20560;-81
2023/09/02 03:13:24;;;;;;;0.10;0.10;;;14.60;99.90;;;;;;5045001;28;20651;-81
2023/09/02 03:15:51;;;;;;;0.10;0.10;;;14.50;99.90;;;;;;5047947;28;20232;-81
2023/09/02 03:18:16;;;;;;;0.10;0.10;;;14.50;99.90;;;;;;5045787;28;20291;-82
2023/09/02 03:20:42;;;;;;;0.10;0.10;;;14.40;99.90;;;;;;5048783;28;20299;-81
2023/09/02 03:23:07;;;;;;;0.10;0.10;;;14.30;99.90;;;;;;5048994;28;20189;-81
2023/09/02 03:25:34;;;;;;;0.10;0.10;;;14.20;99.90;;;;;;5048217;28;20224;-81
2023/09/02 03:28:00;;;;;;;0.10;0.10;;;14.10;99.90;;;;;;5047223;28;20263;-81
2023/09/02 03:30:26;;;;;;;0.10;0.10;;;14.00;99.90;;;;;;5048109;28;20274;-81
2023/09/02 03:32:51;;;;;;;0.00;0.00;;;14.00;99.90;;;;;;5048036;28;20219;-81
2023/09/02 03:35:17;;;;;;;0.03;0.03;;;14.00;99.90;;;;;;5039541;28;20211;-81
2023/09/02 03:37:43;;;;;;;0.10;0.10;;;14.10;99.90;;;;;;5048711;28;20193;-81
2023/09/02 03:40:08;;;;;;;0.10;0.10;;;14.10;99.90;;;;;;5041327;28;20370;-82
2023/09/02 03:42:34;;;;;;;0.10;0.10;;;14.10;99.90;;;;;;5047104;28;20282;-81
2023/09/02 03:44:59;;;;;;;0.10;0.10;;;14.20;99.90;;;;;;5047305;28;20208;-81
2023/09/02 03:47:30;;;;;;;0.10;0.10;;;14.30;99.90;;;;;;5046944;28;20195;-81
2023/09/02 03:49:56;;;;;;;0.10;0.10;;;14.30;99.90;;;;;;5046726;28;20189;-81
2023/09/02 03:52:21;;;;;;;0.10;0.10;;;14.40;99.90;;;;;;5046508;28;20196;-82
2023/09/02 03:54:47;;;;;;;0.10;0.10;;;14.60;99.90;;;;;;5039083;28;20230;-82
2023/09/02 03:57:13;;;;;;;0.10;0.10;;;14.70;99.90;;;;;;5046439;28;20185;-82
2023/09/02 03:59:38;;;;;;;0.10;0.10;;;14.60;99.90;;;;;;5046199;28;20235;-81
2023/09/02 04:02:03;;;;;;;0.10;0.10;;;14.50;99.90;;;;;;5047353;28;20236;-82
2023/09/02 04:04:29;;;;;;;0.10;0.10;;;14.40;99.90;;;;;;5050307;28;20193;-82
2023/09/02 04:06:54;;;;;;;0.10;0.10;;;14.20;99.90;;;;;;5048129;28;20195;-81
2023/09/02 04:09:20;;;;;;;0.10;0.10;;;14.20;99.90;;;;;;5048104;28;20191;-82
2023/09/02 04:11:45;;;;;;;0.10;0.10;;;14.10;99.90;;;;;;5045611;28;20746;-81
2023/09/02 04:14:11;;;;;;;0.10;0.10;;;14.00;99.90;;;;;;5049729;28;20193;-81
2023/09/02 04:16:37;;;;;;;0.10;0.10;;;14.00;99.90;;;;;;5050181;28;20212;-81
2023/09/02 04:19:04;;;;;;;0.10;0.10;;;13.90;99.90;;;;;;5046149;28;20649;-81
2023/09/02 04:21:30;;;;;;;0.10;0.10;;;14.00;99.90;;;;;;5047059;28;20649;-81
2023/09/02 04:23:55;;;;;;;0.10;0.10;;;14.10;99.90;;;;;;5046364;28;20195;-82
2023/09/02 04:26:21;;;;;;;0.10;0.10;;;14.10;99.90;;;;;;5046224;28;20261;-81
2023/09/02 04:28:47;;;;;;;0.10;0.10;;;14.20;99.90;;;;;;5045598;28;20185;-82
2023/09/02 04:31:13;;;;;;;0.10;0.10;;;14.30;99.90;;;;;;5046655;28;20208;-82
2023/09/02 04:33:39;;;;;;;0.10;0.10;;;14.50;99.90;;;;;;5047003;28;20201;-81
2023/09/02 04:36:05;;;;;;;0.10;0.10;;;14.70;99.90;;;;;;5046002;28;20212;-82
2023/09/02 04:38:31;;;;;;;0.00;0.00;;;14.90;99.90;;;;;;5039009;28;20182;-82
2023/09/02 04:41:01;;;;;;;0.10;0.10;;;15.10;99.90;;;;;;5046131;28;20179;-81
2023/09/02 04:43:26;;;;;;;0.10;0.10;;;15.10;99.90;;;;;;5055615;28;20185;-82
2023/09/02 04:45:52;;;;;;;0.10;0.10;;;15.00;99.90;;;;;;5045282;28;20745;-82
2023/09/02 04:48:17;;;;;;;0.10;0.10;;;15.10;99.90;;;;;;5046723;28;20219;-82
2023/09/02 04:50:43;;;;;;;0.10;0.10;;;15.20;99.90;;;;;;5042598;28;20189;-82
2023/09/02 04:53:09;;;;;;;0.10;0.10;;;15.20;99.90;;;;;;5045269;28;20239;-82
2023/09/02 04:55:38;;;;;;;0.10;0.10;;;15.30;99.90;;;;;;5043522;28;20264;-82
2023/09/02 04:58:04;;;;;;;0.10;0.10;;;15.40;99.90;;;;;;5046359;28;20299;-82
2023/09/02 05:00:30;;;;;;;0.10;0.10;;;15.40;99.90;;;;;;5050032;28;20258;-82
2023/09/02 05:02:56;;;;;;;0.10;0.10;;;15.50;99.90;;;;;;5049604;28;20193;-82
2023/09/02 05:05:22;;;;;;;0.10;0.10;;;15.40;99.90;;;;;;5049792;28;20209;-82
2023/09/02 05:07:49;;;;;;;0.10;0.10;;;15.30;99.90;;;;;;5047135;28;20260;-82
2023/09/02 05:10:15;;;;;;;0.10;0.10;;;15.20;99.90;;;;;;5045731;28;20186;-82
2023/09/02 05:12:41;;;;;;;0.10;0.10;;;15.20;99.90;;;;;;5049344;28;20190;-82
2023/09/02 05:15:07;;;;;;;0.10;0.10;;;15.20;99.90;;;;;;5047796;28;20209;-83
2023/09/02 05:17:33;;;;;;;0.00;0.00;;;15.20;99.90;;;;;;5046931;28;20182;-84
2023/09/02 05:19:59;;;;;;;0.10;0.10;;;15.30;99.90;;;;;;5048960;28;20212;-83
2023/09/02 05:22:25;;;;;;;0.10;0.10;;;15.60;99.90;;;;;;5048839;28;20177;-84
2023/09/02 05:24:51;;;;;;;0.10;0.10;;;15.70;99.90;;;;;;5047658;28;20202;-85
2023/09/02 05:27:16;;;;;;;0.10;0.10;;;15.60;99.90;;;;;;5047733;28;20204;-85
2023/09/02 05:29:43;;;;;;;0.10;0.10;;;15.50;99.90;;;;;;5046572;28;20298;-85
2023/09/02 05:32:09;;;;;;;0.10;0.10;;;15.70;99.90;;;;;;5049629;28;20199;-85
2023/09/02 05:34:35;;;;;;;0.10;0.10;;;15.80;99.90;;;;;;5044543;28;20682;-86
2023/09/02 05:37:03;;;;;;;0.10;0.10;;;15.80;99.90;;;;;;5044524;28;20185;-87
2023/09/02 05:39:30;;;;;;;0.10;0.10;;;15.70;99.90;;;;;;5062501;28;20217;-85
2023/09/02 05:41:56;;;;;;;0.10;0.10;;;15.70;99.90;;;;;;5060895;28;20176;-84
2023/09/02 05:44:23;;;;;;;0.10;0.10;;;15.70;99.90;;;;;;5046457;28;20272;-84
2023/09/02 05:46:53;;;;;;;0.10;0.10;;;15.70;99.90;;;;;;5049811;28;20201;-84
2023/09/02 05:49:19;;;;;;;0.10;0.10;;;15.80;99.90;;;;;;5049887;28;20221;-84
2023/09/02 05:51:44;;;;;;;0.10;0.10;;;16.20;99.90;;;;;;5049900;28;20214;-84
2023/09/02 05:54:10;;;;;;;0.10;0.10;;;16.50;99.90;;;;;;5047007;28;20984;-85
2023/09/02 05:56:36;;;;;;;0.10;0.10;;;16.70;99.90;;;;;;5044951;28;20209;-87
2023/09/02 05:59:18;;;;;;;0.00;0.00;;;17.00;99.90;;;;;;5044796;28;20213;-86
2023/09/02 06:01:46;;;;;;;0.10;0.10;;;16.90;99.90;;;;;;5043987;28;20177;-86
2023/09/02 06:04:11;;;;;;;0.10;0.10;;;16.90;99.90;;;;;;5044469;28;20177;-86
2023/09/02 06:06:36;;;;;;;0.10;0.10;;;17.20;99.90;;;;;;5045324;28;20198;-87
2023/09/02 06:09:08;;;;;;;0.10;0.10;;;17.40;99.90;;;;;;5044372;28;20627;-86
2023/09/02 06:11:34;;;;;;;0.10;0.10;;;17.60;99.90;;;;;;5042906;28;20193;-86
2023/09/02 06:13:59;;;;;;;0.10;0.10;;;17.80;99.90;;;;;;5044420;28;20186;-86
2023/09/02 06:16:25;;;;;;;0.10;0.10;;;17.80;99.90;;;;;;5043661;28;20220;-82
2023/09/02 06:18:50;;;;;;;0.03;0.03;;;17.60;99.90;;;;;;5062752;28;20733;-83
2023/09/02 06:21:16;;;;;;;0.10;0.10;;;17.50;99.90;;;;;;5046697;28;20196;-83
2023/09/02 06:23:43;;;;;;;0.10;0.10;;;17.60;99.90;;;;;;5045886;28;20658;-82
2023/09/02 06:26:09;;;;;;;0.10;0.10;;;18.00;99.90;;;;;;5063150;28;20229;-83
2023/09/02 06:28:34;;;;;;;0.10;0.10;;;18.30;99.90;;;;;;5048018;28;20653;-83
2023/09/02 06:31:05;;;;;;;0.10;0.10;;;18.50;99.90;;;;;;5046988;28;20189;-82
2023/09/02 06:33:30;;;;;;;0.10;0.10;;;18.70;99.90;;;;;;5048854;28;20663;-83
2023/09/02 06:35:56;;;;;;;0.10;0.10;;;18.80;99.90;;;;;;5051042;28;20214;-83
2023/09/02 06:38:21;;;;;;;0.10;0.10;;;18.90;99.90;;;;;;5051540;28;20231;-82
2023/09/02 06:40:47;;;;;;;0.10;0.10;;;19.10;99.90;;;;;;5049234;28;20694;-83
2023/09/02 06:43:13;;;;;;;0.10;0.10;;;19.00;99.90;;;;;;5048136;28;21255;-83
2023/09/02 06:45:38;;;;;;;0.10;0.10;;;18.60;99.90;;;;;;5050409;28;20206;-83
2023/09/02 06:48:04;;;;;;;0.10;0.10;;;18.30;99.90;;;;;;5048712;28;20217;-84
2023/09/02 06:50:29;;;;;;;0.10;0.10;;;18.20;99.90;;;;;;5050732;28;20196;-83
2023/09/02 06:52:55;;;;;;;0.10;0.10;;;18.30;99.90;;;;;;5049811;28;20198;-82
2023/09/02 06:55:20;;;;;;;0.10;0.10;;;18.00;99.90;;;;;;5051745;28;20197;-82
2023/09/02 06:57:46;;;;;;;0.10;0.10;;;18.40;99.90;;;;;;5047389;28;20192;-83
2023/09/02 07:00:12;;;;;;;0.10;0.10;;;18.60;99.90;;;;;;5051528;28;20209;-83
2023/09/02 07:02:38;;;;;;;0.10;0.10;;;18.90;99.90;;;;;;5047666;28;20182;-83
2023/09/02 07:05:04;;;;;;;0.10;0.10;;;19.00;99.90;;;;;;5042599;28;20205;-83
2023/09/02 07:07:30;;;;;;;0.10;0.10;;;19.10;99.90;;;;;;5051556;28;20193;-82
2023/09/02 07:09:55;;;;;;;0.10;0.10;;;19.20;99.90;;;;;;5049090;28;22070;-83
2023/09/02 07:12:21;;;;;;;0.10;0.10;;;19.10;99.90;;;;;;5052283;28;20204;-82
2023/09/02 07:14:46;;;;;;;0.10;0.10;;;19.20;99.90;;;;;;5050477;28;20264;-83
2023/09/02 07:17:12;;;;;;;0.10;0.10;;;19.40;99.90;;;;;;5051619;28;20212;-82
2023/09/02 07:19:38;;;;;;;0.10;0.10;;;19.50;99.90;;;;;;5052400;28;20240;-82
2023/09/02 07:22:03;;;;;;;0.10;0.10;;;19.70;99.90;;;;;;5051059;28;20678;-83
2023/09/02 07:24:29;;;;;;;0.10;0.10;;;19.80;99.90;;;;;;5052327;28;20235;-83
2023/09/02 07:26:54;;;;;;;0.10;0.10;;;19.80;99.90;;;;;;5052369;28;20220;-83
2023/09/02 07:29:20;;;;;;;0.10;0.10;;;19.80;99.90;;;;;;5053090;28;20190;-83
2023/09/02 07:31:46;;;;;;;0.10;0.10;;;19.90;99.90;;;;;;5050515;28;20199;-82
2023/09/02 07:34:11;;;;;;;0.10;0.10;;;20.10;99.90;;;;;;5049317;28;20605;-82
2023/09/02 07:36:37;;;;;;;0.10;0.10;;;20.20;99.90;;;;;;5047662;28;20583;-82
2023/09/02 07:39:03;;;;;;;0.10;0.10;;;20.30;99.90;;;;;;5045240;28;20233;-83
2023/09/02 07:41:28;;;;;;;0.10;0.10;;;20.50;99.90;;;;;;5046684;28;20235;-82
2023/09/02 07:43:54;;;;;;;0.10;0.10;;;20.80;99.90;;;;;;5044459;28;20128;-81
2023/09/02 07:46:19;;;;;;;0.10;0.10;;;20.90;99.90;;;;;;5047433;28;20890;-82
2023/09/02 07:48:48;;;;;;;0.10;0.10;;;20.90;99.90;;;;;;5046641;28;20186;-82
2023/09/02 07:51:14;;;;;;;0.10;0.10;;;20.80;99.90;;;;;;5046437;28;20457;-83
2023/09/02 07:53:39;;;;;;;0.10;0.10;;;20.40;99.90;;;;;;5046013;28;20178;-84
2023/09/02 07:56:05;;;;;;;0.10;0.10;;;20.70;99.90;;;;;;5047049;28;20221;-82
2023/09/02 07:58:30;;;;;;;0.10;0.10;;;20.90;99.90;;;;;;5047667;28;20189;-82
2023/09/02 08:00:59;;;;;;;0.10;0.10;;;20.80;99.90;;;;;;5046290;28;20256;-82
2023/09/02 08:03:24;;;;;;;0.10;0.10;;;20.90;99.90;;;;;;5047006;28;20682;-82
2023/09/02 08:05:50;;;;;;;0.10;0.10;;;20.90;99.90;;;;;;5045776;28;20221;-82
2023/09/02 08:08:16;;;;;;;0.10;0.10;;;21.10;99.90;;;;;;5044762;28;20215;-82
2023/09/02 08:10:41;;;;;;;0.10;0.10;;;21.10;99.90;;;;;;5044171;28;20197;-82
2023/09/02 08:13:07;;;;;;;0.10;0.10;;;21.40;99.90;;;;;;5043189;28;20666;-82
2023/09/02 08:15:33;;;;;;;0.10;0.10;;;21.60;99.90;;;;;;5062036;28;20890;-82
2023/09/02 08:17:58;;;;;;;0.10;0.10;;;21.70;99.90;;;;;;5046337;28;20580;-84
2023/09/02 08:20:25;;;;;;;0.10;0.10;;;21.50;99.90;;;;;;5043334;28;20607;-82
2023/09/02 08:22:51;;;;;;;0.10;0.10;;;21.20;99.90;;;;;;5046467;28;20189;-82
2023/09/02 08:25:17;;;;;;;0.10;0.10;;;20.40;99.90;;;;;;5062387;28;20435;-82
2023/09/02 08:27:48;;;;;;;0.10;0.10;;;20.10;99.90;;;;;;5044999;28;20178;-83
2023/09/02 08:30:15;;;;;;;0.10;0.10;;;19.60;99.90;;;;;;5046601;28;20274;-82
2023/09/02 08:32:41;;;;;;;0.10;0.10;;;19.80;99.90;;;;;;5046208;28;20182;-83
2023/09/02 08:35:08;;;;;;;0.10;0.10;;;19.80;99.90;;;;;;5048416;28;20226;-82
2023/09/02 08:37:34;;;;;;;0.10;0.10;;;20.00;99.90;;;;;;5046823;28;20335;-82
2023/09/02 08:40:00;;;;;;;0.10;0.10;;;20.50;99.90;;;;;;5046546;28;20216;-82
2023/09/02 08:42:27;;;;;;;0.10;0.10;;;20.50;99.90;;;;;;5045827;28;20239;-82
2023/09/02 08:44:55;;;;;;;0.10;0.10;;;20.20;99.90;;;;;;5045029;28;20675;-82
2023/09/02 08:47:21;;;;;;;0.10;0.10;;;19.90;99.90;;;;;;5044072;28;20188;-81
2023/09/02 08:49:49;;;;;;;0.10;0.10;;;20.50;99.90;;;;;;5044193;28;20205;-82
2023/09/02 08:52:15;;;;;;;0.10;0.10;;;21.00;99.90;;;;;;5046234;28;20277;-81
2023/09/02 08:54:42;;;;;;;0.10;0.10;;;21.50;99.90;;;;;;5045799;28;20276;-82
2023/09/02 08:57:11;;;;;;;0.10;0.10;;;21.50;99.90;;;;;;5061940;28;20212;-82
2023/09/02 08:59:36;;;;;;;0.10;0.10;;;21.90;99.90;;;;;;5045173;28;20210;-82
2023/09/02 09:02:03;;;;;;;0.10;0.10;;;21.80;99.90;;;;;;5046246;28;20240;-82
2023/09/02 09:04:33;;;;;;;0.10;0.10;;;21.20;99.90;;;;;;5048191;28;21197;-82
2023/09/02 09:07:02;;;;;;;0.10;0.10;;;21.60;99.90;;;;;;5046048;28;20594;-82
2023/09/02 09:09:28;;;;;;;0.10;0.10;;;21.60;99.90;;;;;;5045170;28;20189;-82
2023/09/02 09:11:57;;;;;;;0.10;0.10;;;21.90;99.90;;;;;;5046095;28;20206;-83
2023/09/02 09:14:23;;;;;;;0.10;0.10;;;22.20;99.90;;;;;;5061761;28;20190;-83
2023/09/02 09:16:54;;;;;;;0.10;0.10;;;22.30;99.90;;;;;;5045455;28;20209;-83
2023/09/02 09:19:21;;;;;;;0.10;0.10;;;22.30;99.90;;;;;;5062387;28;20319;-83
2023/09/02 09:21:47;;;;;;;0.10;0.10;;;21.70;99.90;;;;;;5044716;28;20182;-82
2023/09/02 09:24:13;;;;;;;0.10;0.10;;;22.20;99.90;;;;;;5044417;28;20188;-82
2023/09/02 09:26:40;;;;;;;0.10;0.10;;;22.30;99.90;;;;;;5045636;28;20601;-82
2023/09/02 09:29:14;;;;;;;0.10;0.10;;;22.70;99.90;;;;;;5045259;28;20205;-82
2023/09/02 09:31:40;;;;;;;0.10;0.10;;;23.00;99.90;;;;;;5046559;28;20212;-82
2023/09/02 09:34:06;;;;;;;0.10;0.10;;;23.20;99.90;;;;;;5049808;28;20217;-82
2023/09/02 09:36:33;;;;;;;0.10;0.10;;;23.20;99.90;;;;;;5048417;28;20213;-82
2023/09/02 09:39:06;;;;;;;0.10;0.10;;;23.40;99.90;;;;;;5048074;28;20211;-82
2023/09/02 09:41:33;;;;;;;0.10;0.10;;;23.40;99.90;;;;;;5046766;28;20265;-82
2023/09/02 09:44:06;;;;;;;0.10;0.10;;;23.50;99.90;;;;;;5047001;28;20762;-82
2023/09/02 09:46:46;;;;;;;0.10;0.10;;;23.70;99.90;;;;;;5046853;28;20248;-82
2023/09/02 09:49:31;;;;;;;0.10;0.10;;;23.90;99.90;;;;;;5046188;28;21129;-82
2023/09/02 09:52:00;;;;;;;0.10;0.10;;;24.00;99.90;;;;;;5043884;28;20217;-82
2023/09/02 09:54:36;;;;;;;0.10;0.10;;;23.20;99.90;;;;;;5045395;28;20232;-82
2023/09/02 09:57:03;;;;;;;0.10;0.10;;;23.60;99.90;;;;;;5048328;28;20188;-82
2023/09/02 09:59:28;;;;;;;0.10;0.10;;;23.40;99.90;;;;;;5042611;28;20274;-82
2023/09/02 10:01:54;;;;;;;0.10;0.10;;;22.60;99.90;;;;;;5045143;28;20186;-82
2023/09/02 10:04:20;;;;;;;0.10;0.10;;;22.50;99.90;;;;;;5046762;28;20185;-82
2023/09/02 10:06:47;;;;;;;0.10;0.10;;;23.10;99.90;;;;;;5043798;28;20225;-82
2023/09/02 10:09:13;;;;;;;0.10;0.10;;;23.70;99.90;;;;;;5048057;28;20235;-82
2023/09/02 10:11:38;;;;;;;0.10;0.10;;;24.00;99.90;;;;;;5048396;28;20182;-82
2023/09/02 10:14:05;;;;;;;0.10;0.10;;;24.20;99.90;;;;;;5047490;28;20213;-82
2023/09/02 10:16:33;;;;;;;0.10;0.10;;;24.40;99.90;;;;;;5045294;28;20312;-82
2023/09/02 10:19:01;;;;;;;0.10;0.10;;;23.90;99.90;;;;;;5050507;28;20219;-82
2023/09/02 10:21:29;;;;;;;0.10;0.10;;;23.70;99.90;;;;;;5046422;28;20174;-82
2023/09/02 10:23:59;;;;;;;0.10;0.10;;;23.50;99.90;;;;;;5050214;28;20252;-82
2023/09/02 10:26:31;;;;;;;0.10;0.10;;;24.10;99.90;;;;;;5072016;28;20682;-82
2023/09/02 10:29:00;;;;;;;0.10;0.10;;;24.40;99.90;;;;;;5064427;28;20710;-82
2023/09/02 10:31:32;;;;;;;0.10;0.10;;;23.60;99.90;;;;;;5055041;28;20260;-82
2023/09/02 10:34:14;;;;;;;0.10;0.10;;;24.00;99.90;;;;;;5069384;28;20173;-82
2023/09/02 10:36:46;;;;;;;0.10;0.10;;;24.50;99.90;;;;;;5054137;28;20297;-82
2023/09/02 10:39:21;;;;;;;0.10;0.10;;;24.50;99.90;;;;;;5054937;28;20682;-82
2023/09/02 10:41:48;;;;;;;0.10;0.10;;;24.00;99.90;;;;;;5045548;28;20184;-82
2023/09/02 10:44:17;;;;;;;0.10;0.10;;;24.30;99.90;;;;;;5052894;28;21035;-83
2023/09/02 10:46:43;;;;;;;0.10;0.10;;;24.70;99.90;;;;;;5053685;28;20225;-82
2023/09/02 10:49:09;;;;;;;0.10;0.10;;;24.00;99.90;;;;;;5050491;28;20190;-82
2023/09/02 10:51:36;;;;;;;0.10;0.10;;;24.20;99.90;;;;;;5049981;28;20215;-82
2023/09/02 10:54:02;;;;;;;0.10;0.10;;;24.00;99.90;;;;;;5052411;28;20553;-82
2023/09/02 10:56:35;;;;;;;0.10;0.10;;;23.90;99.90;;;;;;5055684;28;20206;-82
2023/09/02 10:59:05;;;;;;;0.10;0.10;;;24.30;99.90;;;;;;5044730;28;20212;-83
2023/09/02 11:01:45;;;;;;;0.10;0.10;;;24.30;99.90;;;;;;5053908;28;20212;-84
2023/09/02 11:04:11;;;;;;;0.10;0.10;;;24.80;99.90;;;;;;5052743;28;20188;-84
2023/09/02 11:06:36;;;;;;;0.10;0.10;;;24.80;99.90;;;;;;5070214;28;20209;-83
2023/09/02 11:09:02;;;;;;;0.10;0.10;;;25.20;99.90;;;;;;5051567;28;20207;-84
2023/09/02 11:12:06;;;;;;;0.10;0.10;;;25.60;99.90;;;;;;5048490;28;20181;-83
2023/09/02 11:14:32;;;;;;;0.10;0.10;;;25.40;99.90;;;;;;5047976;28;20213;-83
2023/09/02 11:17:27;;;;;;;0.10;0.10;;;25.50;99.90;;;;;;5050958;28;20220;-84
2023/09/02 11:20:04;;;;;;;0.10;0.10;;;25.50;99.90;;;;;;5054005;28;20216;-84
2023/09/02 11:22:46;;;;;;;0.10;0.10;;;25.80;99.90;;;;;;5051545;28;20185;-82
2023/09/02 11:25:26;;;;;;;0.10;0.10;;;25.90;99.90;;;;;;5048843;28;20251;-82
2023/09/02 11:27:52;;;;;;;0.10;0.10;;;26.10;99.90;;;;;;5049883;28;20208;-82
2023/09/02 11:30:18;;;;;;;0.10;0.10;;;26.30;99.90;;;;;;5051005;28;20273;-82
2023/09/02 11:32:45;;;;;;;0.10;0.10;;;26.40;99.90;;;;;;5060963;28;20635;-82
2023/09/02 11:35:12;;;;;;;0.10;0.10;;;26.50;99.90;;;;;;5065263;28;20217;-84
2023/09/02 11:37:37;;;;;;;0.10;0.10;;;26.40;99.90;;;;;;5047987;28;20213;-83
2023/09/02 11:40:16;;;;;;;0.10;0.10;;;26.60;99.90;;;;;;5049624;28;20312;-84
2023/09/02 11:42:53;;;;;;;0.10;0.10;;;26.60;99.90;;;;;;5044194;28;20185;-84
2023/09/02 11:45:20;;;;;;;0.10;0.10;;;26.70;99.90;;;;;;5047099;28;20205;-84
2023/09/02 11:47:51;;;;;;;0.10;0.10;;;26.60;99.90;;;;;;5048178;28;20178;-83
2023/09/02 11:50:18;;;;;;;0.10;0.10;;;26.80;99.90;;;;;;5054883;28;20181;-83
2023/09/02 11:52:45;;;;;;;0.10;0.10;;;27.00;99.90;;;;;;5048632;28;20197;-83
2023/09/02 11:55:12;;;;;;;0.10;0.10;;;27.10;99.90;;;;;;5048262;28;20907;-83
2023/09/02 11:57:39;;;;;;;0.10;0.10;;;27.00;99.90;;;;;;5065026;28;20194;-83
2023/09/02 12:00:07;;;;;;;0.10;0.10;;;27.10;99.90;;;;;;5047436;28;20206;-83
2023/09/02 12:02:35;;;;;;;0.10;0.10;;;26.90;99.90;;;;;;5047775;28;20196;-83
2023/09/02 12:05:01;;;;;;;0.10;0.10;;;26.50;99.90;;;;;;5063847;28;20206;-84
2023/09/02 12:07:26;;;;;;;0.10;0.10;;;26.30;99.90;;;;;;5047496;28;20689;-83
2023/09/02 12:09:54;;;;;;;0.10;0.10;;;26.60;99.90;;;;;;5057339;28;20297;-83
2023/09/02 12:12:20;;;;;;;0.10;0.10;;;26.20;99.90;;;;;;5048027;28;20663;-83
2023/09/02 12:14:47;;;;;;;0.10;0.10;;;26.10;99.90;;;;;;5051030;28;20204;-83
2023/09/02 12:17:13;;;;;;;0.10;0.10;;;26.30;99.90;;;;;;5050287;28;20177;-83
2023/09/02 12:19:38;;;;;;;0.10;0.10;;;26.50;99.90;;;;;;5048299;28;20214;-83
2023/09/02 12:22:04;;;;;;;0.10;0.10;;;26.60;99.90;;;;;;5050292;28;20319;-83
2023/09/02 12:24:30;;;;;;;0.10;0.10;;;26.70;99.90;;;;;;5047684;28;20179;-83
2023/09/02 12:26:56;;;;;;;0.10;0.10;;;26.90;99.90;;;;;;5048450;28;20216;-82
2023/09/02 12:29:24;;;;;;;0.10;0.10;;;26.00;99.90;;;;;;5048738;28;20186;-83
2023/09/02 12:31:55;;;;;;;0.10;0.10;;;25.60;99.90;;;;;;5056311;28;20177;-83
2023/09/02 12:34:22;;;;;;;0.10;0.10;;;25.70;99.90;;;;;;5049694;28;20181;-83
2023/09/02 12:36:47;;;;;;;0.10;0.10;;;25.40;99.90;;;;;;5049989;28;20263;-83
2023/09/02 12:39:27;;;;;;;0.10;0.10;;;25.90;99.90;;;;;;5048190;28;20209;-83
2023/09/02 12:41:53;;;;;;;0.10;0.10;;;26.50;99.90;;;;;;5048803;28;20217;-83
2023/09/02 12:44:19;;;;;;;0.10;0.10;;;26.90;99.90;;;;;;5048747;28;20210;-83
2023/09/02 12:46:47;;;;;;;0.10;0.10;;;27.00;99.90;;;;;;5049394;28;20220;-84
2023/09/02 12:49:14;;;;;;;0.10;0.10;;;27.00;99.90;;;;;;5041887;28;20578;-82